DAL248 KMIA-KJFK
Flight info
| Callsign | DAL248 |
|---|---|
| Flight time | N/A |
| Altitude | 37000 |
| Route | FOLZZ3 ALYRA PELCN Y309 FLRDA SAGGY CHIEZ Q161 KALDA Q108 SIE CAMRN5 |
| Aircraft | B764/H-SDE3FGHIM3RWXY/LB1 |
Departure
| Time | 2026-05-05 03:58 |
|---|---|
| Airport | Miami International Airport (KMIA) |
Arrival
| Time | N/A |
|---|---|
| Airport | John F. Kennedy International Airport (KJFK) |
| Time | Latitude | Longitude | Altitude | Speed | Heading |
|---|---|---|---|---|---|
| 2026-05-05 03:15 | 25.79076 | -80.27601 | 15 ft | 0 kts | 267° |
| 2026-05-05 03:43 | 25.79076 | -80.27598 | 15 ft | 2 kts | 267° |
| 2026-05-05 03:43 | 25.79077 | -80.27581 | 15 ft | 2 kts | 267° |
| 2026-05-05 03:43 | 25.79077 | -80.27568 | 15 ft | 0 kts | 267° |
| 2026-05-05 03:43 | 25.79079 | -80.27554 | 15 ft | 2 kts | 243° |
| 2026-05-05 03:44 | 25.79089 | -80.27541 | 15 ft | 2 kts | 212° |
| 2026-05-05 03:44 | 25.79103 | -80.27535 | 15 ft | 1 kts | 184° |
| 2026-05-05 03:44 | 25.79108 | -80.27535 | 14 ft | 1 kts | 175° |
| 2026-05-05 03:44 | 25.79111 | -80.27535 | 14 ft | 0 kts | 177° |
| 2026-05-05 03:46 | 25.79107 | -80.27535 | 14 ft | 1 kts | 177° |
| 2026-05-05 03:47 | 25.79092 | -80.27535 | 14 ft | 2 kts | 177° |
| 2026-05-05 03:47 | 25.79069 | -80.27533 | 14 ft | 3 kts | 177° |
| 2026-05-05 03:47 | 25.79042 | -80.27531 | 14 ft | 4 kts | 177° |
| 2026-05-05 03:47 | 25.79012 | -80.27531 | 15 ft | 4 kts | 184° |
| 2026-05-05 03:48 | 25.78988 | -80.27540 | 14 ft | 3 kts | 210° |
| 2026-05-05 03:48 | 25.78974 | -80.27555 | 14 ft | 2 kts | 237° |
| 2026-05-05 03:48 | 25.78964 | -80.27583 | 14 ft | 5 kts | 252° |
| 2026-05-05 03:48 | 25.78953 | -80.27628 | 15 ft | 6 kts | 258° |
| 2026-05-05 03:49 | 25.78947 | -80.27673 | 15 ft | 5 kts | 264° |
| 2026-05-05 03:49 | 25.78944 | -80.27719 | 15 ft | 6 kts | 266° |
| 2026-05-05 03:49 | 25.78941 | -80.27772 | 15 ft | 7 kts | 266° |
| 2026-05-05 03:49 | 25.78939 | -80.27830 | 14 ft | 7 kts | 269° |
| 2026-05-05 03:50 | 25.78939 | -80.27893 | 15 ft | 8 kts | 274° |
| 2026-05-05 03:50 | 25.78957 | -80.27963 | 14 ft | 10 kts | 294° |
| 2026-05-05 03:50 | 25.78996 | -80.28045 | 15 ft | 13 kts | 300° |
| 2026-05-05 03:50 | 25.79043 | -80.28136 | 15 ft | 13 kts | 300° |
| 2026-05-05 03:51 | 25.79089 | -80.28223 | 14 ft | 12 kts | 301° |
| 2026-05-05 03:51 | 25.79131 | -80.28297 | 14 ft | 10 kts | 302° |
| 2026-05-05 03:51 | 25.79169 | -80.28362 | 14 ft | 9 kts | 309° |
| 2026-05-05 03:51 | 25.79214 | -80.28412 | 14 ft | 9 kts | 313° |
| 2026-05-05 03:52 | 25.79252 | -80.28471 | 15 ft | 9 kts | 302° |
| 2026-05-05 03:52 | 25.79287 | -80.28539 | 15 ft | 10 kts | 300° |
| 2026-05-05 03:52 | 25.79327 | -80.28616 | 15 ft | 12 kts | 300° |
| 2026-05-05 03:52 | 25.79373 | -80.28705 | 15 ft | 13 kts | 300° |
| 2026-05-05 03:53 | 25.79422 | -80.28800 | 15 ft | 14 kts | 299° |
| 2026-05-05 03:53 | 25.79473 | -80.28901 | 15 ft | 15 kts | 299° |
| 2026-05-05 03:53 | 25.79530 | -80.29015 | 15 ft | 17 kts | 299° |
| 2026-05-05 03:53 | 25.79593 | -80.29137 | 15 ft | 18 kts | 300° |
| 2026-05-05 03:54 | 25.79661 | -80.29269 | 14 ft | 19 kts | 299° |
| 2026-05-05 03:54 | 25.79731 | -80.29406 | 14 ft | 20 kts | 300° |
| 2026-05-05 03:54 | 25.79800 | -80.29539 | 15 ft | 19 kts | 300° |
| 2026-05-05 03:54 | 25.79863 | -80.29664 | 15 ft | 17 kts | 299° |
| 2026-05-05 03:55 | 25.79915 | -80.29781 | 14 ft | 16 kts | 295° |
| 2026-05-05 03:55 | 25.79956 | -80.29889 | 14 ft | 14 kts | 290° |
| 2026-05-05 03:55 | 25.79985 | -80.29990 | 15 ft | 13 kts | 286° |
| 2026-05-05 03:55 | 25.80004 | -80.30061 | 14 ft | 6 kts | 286° |
| 2026-05-05 03:56 | 25.80024 | -80.30102 | 14 ft | 5 kts | 314° |
| 2026-05-05 03:56 | 25.80054 | -80.30119 | 15 ft | 2 kts | 356° |
| 2026-05-05 03:56 | 25.80064 | -80.30113 | 15 ft | 0 kts | 44° |
| 2026-05-05 03:56 | 25.80068 | -80.30107 | 15 ft | 1 kts | 59° |
| 2026-05-05 03:57 | 25.80073 | -80.30080 | 14 ft | 5 kts | 84° |
| 2026-05-05 03:57 | 25.80080 | -80.29915 | 15 ft | 43 kts | 87° |
| 2026-05-05 03:57 | 25.80102 | -80.29406 | 15 ft | 88 kts | 87° |
| 2026-05-05 03:57 | 25.80138 | -80.28562 | 15 ft | 129 kts | 87° |
| 2026-05-05 03:58 | 25.80185 | -80.27423 | 17 ft | 164 kts | 86° |
| 2026-05-05 03:58 | 25.80240 | -80.26106 | 288 ft | 174 kts | 86° |
| 2026-05-05 03:58 | 25.80261 | -80.24740 | 745 ft | 179 kts | 95° |
| 2026-05-05 03:58 | 25.79888 | -80.23443 | 1282 ft | 180 kts | 117° |
| 2026-05-05 03:59 | 25.79133 | -80.22212 | 1432 ft | 206 kts | 122° |
| 2026-05-05 03:59 | 25.78302 | -80.20769 | 1543 ft | 235 kts | 118° |
| 2026-05-05 03:59 | 25.77451 | -80.19115 | 1931 ft | 254 kts | 117° |
| 2026-05-05 03:59 | 25.76575 | -80.17388 | 2672 ft | 259 kts | 119° |
| 2026-05-05 04:00 | 25.75674 | -80.15651 | 3441 ft | 262 kts | 118° |
| 2026-05-05 04:00 | 25.74786 | -80.13888 | 4117 ft | 268 kts | 116° |
| 2026-05-05 04:00 | 25.74282 | -80.11900 | 4758 ft | 275 kts | 91° |
| 2026-05-05 04:00 | 25.74697 | -80.09822 | 5446 ft | 280 kts | 61° |
| 2026-05-05 04:01 | 25.75854 | -80.08102 | 6093 ft | 286 kts | 48° |
| 2026-05-05 04:01 | 25.77171 | -80.06416 | 6783 ft | 291 kts | 49° |
| 2026-05-05 04:01 | 25.78505 | -80.04701 | 7504 ft | 296 kts | 47° |
| 2026-05-05 04:01 | 25.79869 | -80.02960 | 8117 ft | 303 kts | 47° |
| 2026-05-05 04:02 | 25.81268 | -80.01179 | 8827 ft | 307 kts | 47° |
| 2026-05-05 04:02 | 25.82687 | -79.99375 | 9406 ft | 316 kts | 47° |
| 2026-05-05 04:02 | 25.84147 | -79.97520 | 10128 ft | 319 kts | 47° |
| 2026-05-05 04:02 | 25.85648 | -79.95615 | 10374 ft | 342 kts | 47° |
| 2026-05-05 04:03 | 25.87274 | -79.93550 | 10435 ft | 371 kts | 47° |
| 2026-05-05 04:03 | 25.89061 | -79.91280 | 10545 ft | 401 kts | 47° |
| 2026-05-05 04:03 | 25.90908 | -79.88927 | 11344 ft | 408 kts | 47° |
| 2026-05-05 04:03 | 25.92779 | -79.86544 | 12241 ft | 413 kts | 47° |
| 2026-05-05 04:04 | 25.94674 | -79.84129 | 13058 ft | 419 kts | 47° |
| 2026-05-05 04:04 | 25.96592 | -79.81686 | 13957 ft | 423 kts | 46° |
| 2026-05-05 04:04 | 25.98564 | -79.79170 | 14726 ft | 431 kts | 46° |
| 2026-05-05 04:04 | 26.00528 | -79.76666 | 15548 ft | 437 kts | 46° |
| 2026-05-05 04:05 | 26.02554 | -79.74080 | 16334 ft | 443 kts | 45° |
| 2026-05-05 04:05 | 26.04583 | -79.71487 | 17163 ft | 448 kts | 45° |
| 2026-05-05 04:05 | 26.06659 | -79.68835 | 17950 ft | 454 kts | 45° |
| 2026-05-05 04:05 | 26.08732 | -79.66186 | 18719 ft | 461 kts | 44° |
| 2026-05-05 04:06 | 26.10817 | -79.63406 | 19541 ft | 468 kts | 49° |
| 2026-05-05 04:06 | 26.12709 | -79.60421 | 20303 ft | 475 kts | 51° |
| 2026-05-05 04:06 | 26.14624 | -79.57450 | 21031 ft | 480 kts | 51° |
| 2026-05-05 04:06 | 26.16551 | -79.54416 | 21722 ft | 485 kts | 50° |
| 2026-05-05 04:07 | 26.18516 | -79.51330 | 22401 ft | 490 kts | 51° |
| 2026-05-05 04:07 | 26.20504 | -79.48199 | 23004 ft | 495 kts | 51° |
| 2026-05-05 04:07 | 26.22474 | -79.45090 | 23692 ft | 498 kts | 50° |
| 2026-05-05 04:07 | 26.24512 | -79.41874 | 24312 ft | 502 kts | 50° |
| 2026-05-05 04:08 | 26.26525 | -79.38716 | 24908 ft | 504 kts | 48° |
| 2026-05-05 04:08 | 26.28809 | -79.35774 | 25476 ft | 500 kts | 38° |
| 2026-05-05 04:08 | 26.31479 | -79.33255 | 26020 ft | 497 kts | 30° |
| 2026-05-05 04:08 | 26.34337 | -79.31170 | 26571 ft | 494 kts | 26° |
| 2026-05-05 04:09 | 26.37271 | -79.29037 | 27046 ft | 498 kts | 27° |
| 2026-05-05 04:09 | 26.40188 | -79.26942 | 27570 ft | 499 kts | 26° |
| 2026-05-05 04:09 | 26.43132 | -79.24828 | 27961 ft | 502 kts | 26° |
| 2026-05-05 04:09 | 26.46057 | -79.22729 | 28562 ft | 500 kts | 26° |
| 2026-05-05 04:10 | 26.48991 | -79.20631 | 29051 ft | 500 kts | 26° |
| 2026-05-05 04:10 | 26.51947 | -79.18514 | 29558 ft | 499 kts | 25° |
| 2026-05-05 04:10 | 26.54845 | -79.16440 | 30274 ft | 492 kts | 25° |
| 2026-05-05 04:10 | 26.57742 | -79.14367 | 30740 ft | 492 kts | 25° |
| 2026-05-05 04:11 | 26.60632 | -79.12300 | 31198 ft | 491 kts | 25° |
| 2026-05-05 04:11 | 26.63490 | -79.10249 | 31980 ft | 483 kts | 25° |
| 2026-05-05 04:11 | 26.66339 | -79.08209 | 32463 ft | 481 kts | 25° |
| 2026-05-05 04:11 | 26.69130 | -79.06209 | 32842 ft | 481 kts | 24° |
| 2026-05-05 04:12 | 26.71977 | -79.04171 | 33104 ft | 483 kts | 24° |
| 2026-05-05 04:12 | 26.74792 | -79.02145 | 33844 ft | 475 kts | 24° |
| 2026-05-05 04:12 | 26.77603 | -79.00130 | 34079 ft | 479 kts | 24° |
| 2026-05-05 04:12 | 26.80386 | -78.98132 | 34440 ft | 478 kts | 24° |
| 2026-05-05 04:13 | 26.83185 | -78.96120 | 34785 ft | 478 kts | 24° |
| 2026-05-05 04:13 | 26.86018 | -78.94083 | 35113 ft | 479 kts | 23° |
| 2026-05-05 04:13 | 26.88819 | -78.92069 | 35338 ft | 481 kts | 23° |
| 2026-05-05 04:13 | 26.91639 | -78.90037 | 35657 ft | 481 kts | 23° |
| 2026-05-05 04:14 | 26.94450 | -78.88011 | 36052 ft | 479 kts | 23° |
| 2026-05-05 04:14 | 26.97293 | -78.85963 | 36196 ft | 483 kts | 23° |
| 2026-05-05 04:14 | 27.00154 | -78.83900 | 36441 ft | 484 kts | 24° |
| 2026-05-05 04:14 | 27.02998 | -78.81848 | 36566 ft | 487 kts | 23° |
| 2026-05-05 04:15 | 27.05828 | -78.79798 | 37033 ft | 480 kts | 23° |
| 2026-05-05 04:15 | 27.08636 | -78.77769 | 36959 ft | 481 kts | 23° |
| 2026-05-05 04:15 | 27.14314 | -78.73665 | 37000 ft | 483 kts | 23° |
| 2026-05-05 04:16 | 27.20018 | -78.69535 | 37002 ft | 486 kts | 23° |
| 2026-05-05 04:16 | 27.25739 | -78.65505 | 37005 ft | 480 kts | 18° |
| 2026-05-05 04:17 | 27.28764 | -78.64040 | 37029 ft | 468 kts | 8° |
| 2026-05-05 04:17 | 27.31874 | -78.63155 | 37025 ft | 456 kts | 359° |
| 2026-05-05 04:17 | 27.38159 | -78.62186 | 37013 ft | 452 kts | 357° |
| 2026-05-05 04:18 | 27.44431 | -78.61311 | 37016 ft | 454 kts | 357° |
| 2026-05-05 04:18 | 27.50742 | -78.60468 | 37023 ft | 454 kts | 357° |
| 2026-05-05 04:19 | 27.57025 | -78.59642 | 37024 ft | 454 kts | 357° |
| 2026-05-05 04:19 | 27.63328 | -78.58818 | 37027 ft | 453 kts | 357° |
| 2026-05-05 04:20 | 27.69631 | -78.57996 | 37025 ft | 454 kts | 356° |
| 2026-05-05 04:20 | 27.75955 | -78.57172 | 37032 ft | 457 kts | 356° |
| 2026-05-05 04:21 | 27.82306 | -78.56343 | 37029 ft | 457 kts | 357° |
| 2026-05-05 04:21 | 27.88638 | -78.55515 | 37036 ft | 457 kts | 356° |
| 2026-05-05 04:22 | 27.94985 | -78.54684 | 37038 ft | 456 kts | 356° |
| 2026-05-05 04:22 | 28.01349 | -78.53853 | 37047 ft | 459 kts | 356° |
| 2026-05-05 04:23 | 28.07702 | -78.53019 | 37051 ft | 459 kts | 357° |
| 2026-05-05 04:23 | 28.14093 | -78.52180 | 37047 ft | 457 kts | 357° |
| 2026-05-05 04:24 | 28.20504 | -78.51338 | 37048 ft | 458 kts | 357° |
| 2026-05-05 04:25 | 28.30043 | -78.50083 | 37047 ft | 461 kts | 357° |
| 2026-05-05 04:25 | 28.36464 | -78.49236 | 37040 ft | 459 kts | 357° |
| 2026-05-05 04:26 | 28.42826 | -78.48395 | 37049 ft | 458 kts | 358° |
| 2026-05-05 04:26 | 28.49232 | -78.47551 | 37046 ft | 460 kts | 358° |
| 2026-05-05 04:27 | 28.55650 | -78.46701 | 37040 ft | 461 kts | 358° |
| 2026-05-05 04:27 | 28.62081 | -78.45850 | 37045 ft | 462 kts | 358° |
| 2026-05-05 04:28 | 28.68531 | -78.44994 | 37052 ft | 463 kts | 358° |
| 2026-05-05 04:28 | 28.74938 | -78.44141 | 37040 ft | 462 kts | 358° |
| 2026-05-05 04:29 | 28.81337 | -78.43292 | 37042 ft | 463 kts | 358° |
| 2026-05-05 04:29 | 28.87762 | -78.42436 | 37043 ft | 463 kts | 358° |
| 2026-05-05 04:30 | 28.94186 | -78.41580 | 37042 ft | 463 kts | 359° |
| 2026-05-05 04:30 | 29.00590 | -78.40726 | 37045 ft | 464 kts | 359° |
| 2026-05-05 04:31 | 29.07030 | -78.39865 | 37045 ft | 464 kts | 359° |
| 2026-05-05 04:31 | 29.13447 | -78.39006 | 37047 ft | 464 kts | 359° |
| 2026-05-05 04:32 | 29.19898 | -78.38142 | 37055 ft | 465 kts | 359° |
| 2026-05-05 04:32 | 29.26357 | -78.37275 | 37051 ft | 464 kts | 359° |
| 2026-05-05 04:33 | 29.31546 | -78.36578 | 37054 ft | 465 kts | 359° |
| 2026-05-05 04:33 | 29.38940 | -78.35584 | 37055 ft | 466 kts | 359° |
| 2026-05-05 04:34 | 29.45485 | -78.34703 | 37050 ft | 468 kts | 359° |
| 2026-05-05 04:34 | 29.51981 | -78.34516 | 37070 ft | 455 kts | 348° |
| 2026-05-05 04:35 | 29.58414 | -78.34995 | 37055 ft | 457 kts | 349° |
| 2026-05-05 04:35 | 29.64750 | -78.35461 | 37056 ft | 455 kts | 348° |
| 2026-05-05 04:36 | 29.71161 | -78.35936 | 37057 ft | 457 kts | 349° |
| 2026-05-05 04:36 | 29.77568 | -78.36410 | 37058 ft | 458 kts | 348° |
| 2026-05-05 04:37 | 29.83905 | -78.36880 | 37063 ft | 456 kts | 348° |
| 2026-05-05 04:37 | 29.90276 | -78.37354 | 37067 ft | 455 kts | 348° |
| 2026-05-05 04:38 | 29.96635 | -78.37828 | 37066 ft | 456 kts | 348° |
| 2026-05-05 04:38 | 30.03010 | -78.38304 | 37070 ft | 457 kts | 348° |
| 2026-05-05 04:39 | 30.09389 | -78.38779 | 37066 ft | 457 kts | 348° |
| 2026-05-05 04:39 | 30.15827 | -78.38694 | 37086 ft | 468 kts | 359° |
| 2026-05-05 04:40 | 30.22288 | -78.37759 | 37068 ft | 469 kts | 359° |
| 2026-05-05 04:40 | 30.28786 | -78.36803 | 37065 ft | 469 kts | 359° |
| 2026-05-05 04:41 | 30.35321 | -78.35830 | 37066 ft | 470 kts | 359° |
| 2026-05-05 04:41 | 30.41879 | -78.34841 | 37064 ft | 469 kts | 0° |